Data for 03/20/2010

Time Sea-Level Adjusted Pressure Absolute Pressure Temperature Relative Humidity Dew Point   
(mb) (inHg) (mb) (inHg) (C) (F) (%) (C) (F)
00:05 1024 30.24 854 25.22 -5.9 21.4 85 -8.1 17.5
00:10 1024 30.24 854 25.22 -5.9 21.5 84 -8.2 17.3
00:15 1025 30.27 854 25.22 -5.9 21.4 84 -8.2 17.3
00:20 1024 30.24 854 25.22 -5.9 21.3 83 -8.3 17
00:25 1024 30.24 854 25.22 -6 21.1 83 -8.5 16.7
00:30 1024 30.24 854 25.22 -6.1 21 82 -8.6 16.4
00:35 1024 30.24 854 25.22 -6.2 20.8 82 -8.8 16.2
00:40 1024 30.24 854 25.22 -6.2 20.8 82 -8.8 16.1
00:45 1024 30.24 854 25.22 -6.2 20.9 81 -8.9 16
00:50 1024 30.24 854 25.22 -6.2 20.8 81 -8.9 15.9
00:55 1024 30.24 854 25.22 -6.2 20.8 80 -9.1 15.6
01:00 1024 30.24 854 25.22 -6.3 20.6 79 -9.3 15.2
01:05 1024 30.24 854 25.22 -6.5 20.4 79 -9.5 14.9
01:10 1024 30.24 854 25.22 -6.5 20.3 78 -9.7 14.6
01:15 1024 30.24 854 25.22 -6.6 20.2 79 -9.7 14.5
01:20 1024 30.24 853 25.19 -6.6 20.1 78 -9.9 14.2
01:25 1024 30.24 853 25.19 -6.6 20.2 76 -10 13.9
01:30 1024 30.24 854 25.22 -6.4 20.6 74 -10.2 13.6
01:35 1024 30.24 854 25.22 -6.1 21 73 -10.2 13.7
01:40 1024 30.24 854 25.22 -6.2 20.8 75 -10 13.9
01:45 1024 30.24 854 25.22 -6.3 20.6 74 -10.2 13.6
01:50 1024 30.24 854 25.22 -6.6 20.2 75 -10.3 13.5
01:55 1024 30.24 854 25.22 -6.6 20.1 75 -10.2 13.6
02:00 1024 30.24 854 25.22 -6.5 20.3 74 -10.4 13.3
02:05 1024 30.24 854 25.22 -6.5 20.3 73 -10.6 13
02:10 1024 30.24 854 25.22 -6.6 20.1 73 -10.7 12.7
02:15 1024 30.24 854 25.22 -6.9 19.5 74 -10.8 12.5
02:20 1024 30.24 854 25.22 -7.1 19.3 74 -10.9 12.3
02:25 1024 30.24 854 25.22 -7.2 19.1 75 -10.8 12.5
02:30 1024 30.24 854 25.22 -7.3 19 77 -10.7 12.8
02:35 1024 30.24 853 25.19 -7.2 19.1 76 -10.7 12.7
02:40 1024 30.24 854 25.22 -7.2 19 76 -10.8 12.6
02:45 1024 30.24 853 25.19 -7.2 19.1 75 -10.9 12.5
02:50 1024 30.24 853 25.19 -7.1 19.2 75 -10.8 12.5
02:55 1024 30.24 853 25.19 -7.2 19.1 75 -10.8 12.5
03:00 1024 30.24 853 25.19 -7.3 18.9 75 -11 12.2
03:05 1024 30.24 853 25.19 -7.2 19 75 -11 12.2
03:10 1024 30.24 853 25.19 -7.2 19 76 -10.8 12.5
03:15 1024 30.24 853 25.19 -7.3 18.8 76 -10.9 12.3
03:20 1024 30.24 853 25.19 -7.4 18.7 75 -11 12.2
03:25 1024 30.24 853 25.19 -7.5 18.6 76 -11 12.2
03:30 1024 30.24 853 25.19 -7.6 18.4 76 -11 12.1
03:35 1024 30.24 853 25.19 -7.6 18.3 77 -11 12.1
03:40 1024 30.24 853 25.19 -7.7 18.1 77 -11.1 12
03:45 1024 30.24 853 25.19 -7.6 18.3 76 -11.2 11.9
03:50 1024 30.24 853 25.19 -7.4 18.7 75 -11 12.1
03:55 1024 30.24 853 25.19 -7.4 18.7 75 -11.1 12
04:00 1024 30.24 853 25.19 -7.2 19 74 -11.1 12
04:05 1024 30.24 853 25.19 -7.2 19 74 -11.1 12.1
04:10 1024 30.24 853 25.19 -7.2 19 74 -11.1 12
04:15 1024 30.24 853 25.19 -7.4 18.8 74 -11.2 11.9
04:20 1024 30.24 853 25.19 -7.3 18.9 74 -11.2 11.9
04:25 1024 30.24 853 25.19 -7.4 18.7 75 -11.1 11.9
04:30 1024 30.24 853 25.19 -7.5 18.6 75 -11.2 11.9
04:35 1024 30.24 853 25.19 -7.3 18.8 73 -11.3 11.6
04:40 1024 30.24 853 25.19 -7 19.3 72 -11.2 11.8
04:45 1024 30.24 853 25.19 -7 19.4 72 -11.2 11.9
04:50 1024 30.24 853 25.19 -7 19.4 72 -11.2 11.8
04:55 1024 30.24 853 25.19 -7.2 19.1 73 -11.2 11.9
05:00 1023 30.21 853 25.19 -7.1 19.3 73 -11.2 11.9
05:05 1023 30.21 853 25.19 -7 19.4 72 -11.3 11.7
05:10 1023 30.21 853 25.19 -6.9 19.6 72 -11.2 11.9
05:15 1023 30.21 853 25.19 -7.1 19.3 73 -11.2 11.9
05:20 1023 30.21 853 25.19 -7.3 18.8 73 -11.3 11.6
05:25 1023 30.21 853 25.19 -7.5 18.5 74 -11.3 11.6
05:30 1023 30.21 853 25.19 -7 19.4 73 -11.1 12
05:35 1023 30.21 853 25.19 -7 19.4 73 -11.1 12
05:40 1023 30.21 853 25.19 -6.9 19.6 72 -11.2 11.9
05:45 1023 30.21 853 25.19 -7 19.3 72 -11.3 11.7
05:50 1023 30.21 853 25.19 -7.1 19.1 72 -11.3 11.7
05:55 1023 30.21 853 25.19 -6.9 19.7 70 -11.4 11.4
06:00 1023 30.21 853 25.19 -6.6 20.1 72 -11 12.3
06:05 1023 30.21 853 25.19 -6.8 19.9 70 -11.3 11.7
06:10 1023 30.21 853 25.19 -6.5 20.3 70 -11.1 12.1
06:15 1023 30.21 853 25.19 -6.9 19.6 73 -11 12.2
06:20 1023 30.21 853 25.19 -7.3 18.8 74 -11.3 11.7
06:25 1023 30.21 853 25.19 -7.7 18.2 75 -11.4 11.5
06:30 1023 30.21 852 25.16 -7.8 17.9 75 -11.5 11.3
06:35 1023 30.21 852 25.16 -7.9 17.7 76 -11.5 11.3
06:40 1023 30.21 852 25.16 -8 17.6 75 -11.7 10.9
06:45 1023 30.21 852 25.16 -7.8 17.9 74 -11.7 10.9
06:50 1023 30.21 852 25.16 -7.5 18.5 72 -11.7 11
06:55 1023 30.21 852 25.16 -7.4 18.6 73 -11.5 11.4
07:00 1023 30.21 852 25.16 -7.7 18.2 75 -11.4 11.4
07:05 1023 30.21 852 25.16 -7.6 18.3 74 -11.5 11.4
07:10 1023 30.21 852 25.16 -7.7 18.2 75 -11.4 11.5
07:15 1023 30.21 852 25.16 -7.2 19 73 -11.3 11.7
07:20 1023 30.21 852 25.16 -7 19.5 72 -11.1 11.9
07:25 1023 30.21 852 25.16 -7.2 19 74 -11 12.2
07:30 1023 30.21 852 25.16 -7.7 18.2 76 -11.2 11.8
07:35 1023 30.21 852 25.16 -7.5 18.5 76 -11.1 12
07:40 1023 30.21 852 25.16 -7.2 19 72 -11.4 11.5
07:45 1023 30.21 852 25.16 -7.3 19 72 -11.4 11.5
07:50 1023 30.21 852 25.16 -7.2 19 71 -11.7 11
07:55 1023 30.21 852 25.16 -6.9 19.5 69 -11.7 11
08:00 1023 30.21 852 25.16 -6.7 19.9 69 -11.5 11.2
08:05 1023 30.21 852 25.16 -6.5 20.3 68 -11.6 11.2
08:10 1023 30.21 852 25.16 -6.4 20.5 67 -11.5 11.3
08:15 1023 30.21 852 25.16 -6.7 19.9 69 -11.5 11.3
08:20 1023 30.21 852 25.16 -6.7 19.9 69 -11.5 11.3
08:25 1023 30.21 852 25.16 -6.9 19.6 70 -11.4 11.4
08:30 1023 30.21 852 25.16 -6.6 20 69 -11.4 11.5
08:35 1023 30.21 852 25.16 -6.5 20.4 68 -11.3 11.6
08:40 1023 30.21 852 25.16 -6.2 20.8 67 -11.3 11.6
08:45 1023 30.21 852 25.16 -6 21.3 66 -11.3 11.7
08:50 1023 30.21 852 25.16 -5.6 21.9 65 -11.1 12
08:55 1023 30.21 852 25.16 -4.9 23.3 62 -11 12.1
09:00 1023 30.21 852 25.16 -4.7 23.5 62 -10.9 12.4
09:05 1023 30.21 852 25.16 -4.5 24 62 -10.7 12.7
09:10 1022 30.18 852 25.16 -4.2 24.5 59 -10.9 12.3
09:15 1022 30.18 852 25.16 -4 24.8 60 -10.7 12.7
09:20 1022 30.18 851 25.13 -3.7 25.4 59 -10.6 12.9
09:25 1022 30.18 851 25.13 -3.3 26 55 -11 12.2
09:30 1022 30.18 851 25.13 -2.5 27.5 53 -11 12.3
09:35 1022 30.18 851 25.13 -2.2 28 51 -11 12.3
09:40 1022 30.18 851 25.13 -2 28.4 51 -10.9 12.3
09:45 1022 30.18 851 25.13 -1.7 28.9 50 -10.9 12.3
09:50 1022 30.18 851 25.13 -1.3 29.6 50 -10.5 13.2
09:55 1022 30.18 852 25.16 -1.1 29.9 49 -10.5 13.1
10:00 1022 30.18 852 25.16 -0.2 31.7 45 -10.8 12.5
10:05 1022 30.18 852 25.16 0.2 32.3 44 -10.7 12.7
10:10 1022 30.18 851 25.13 0.7 33.2 40 -11.6 11.2
10:15 1022 30.18 851 25.13 0.7 33.3 42 -10.9 12.3
10:20 1022 30.18 851 25.13 -0.3 31.4 43 -11.4 11.5
10:25 1022 30.18 852 25.16 0.1 32.1 44 -10.9 12.5
10:30 1022 30.18 852 25.16 0.7 33.3 43 -10.4 13.4
10:35 1023 30.21 852 25.16 1.1 34.1 45 -9.6 14.7
10:40 1023 30.21 852 25.16 1.2 34.2 40 -11 12.2
10:45 1023 30.21 852 25.16 0.7 33.2 44 -10.3 13.4
10:50 1023 30.21 852 25.16 0.7 33.3 45 -9.9 14.1
10:55 1023 30.21 852 25.16 1.9 35.4 44 -9.1 15.6
11:00 1023 30.21 852 25.16 2.3 36.1 43 -9 15.9
11:05 1023 30.21 852 25.16 2.2 35.9 43 -9 15.8
11:10 1023 30.21 852 25.16 2.6 36.6 43 -8.7 16.4
11:15 1023 30.21 852 25.16 2.1 35.8 44 -8.9 16
11:20 1023 30.21 852 25.16 1.3 34.3 49 -8.3 17.1
11:25 1023 30.21 852 25.16 0.1 32.1 51 -8.8 16.1
11:30 1023 30.21 852 25.16 -0.4 31.3 52 -9.2 15.5
11:35 1023 30.21 852 25.16 -0.2 31.7 50 -9.3 15.2
11:40 1023 30.21 852 25.16 -0 31.9 50 -9.3 15.3
11:45 1023 30.21 852 25.16 0.5 32.8 45 -10.2 13.6
11:50 1023 30.21 852 25.16 0.9 33.6 46 -9.4 15
11:55 1023 30.21 852 25.16 1.1 34 46 -9.4 15
12:00 1023 30.21 852 25.16 1.5 34.7 42 -10 13.9
12:05 1023 30.21 852 25.16 1.9 35.5 44 -9.1 15.7
12:10 1023 30.21 852 25.16 2.4 36.4 42 -9.2 15.5
12:15 1023 30.21 852 25.16 2.1 35.8 42 -9.6 14.7
12:20 1023 30.21 852 25.16 2.7 36.8 44 -8.5 16.7
12:25 1023 30.21 852 25.16 2.6 36.7 42 -9.2 15.5
12:30 1023 30.21 852 25.16 2.5 36.6 43 -8.9 16
12:35 1023 30.21 852 25.16 2.9 37.3 42 -8.7 16.3
12:40 1023 30.21 852 25.16 3.6 38.5 39 -9 15.8
12:45 1023 30.21 852 25.16 3.5 38.2 41 -8.6 16.4
12:50 1023 30.21 852 25.16 3.1 37.6 44 -8 17.5
12:55 1023 30.21 852 25.16 3.2 37.7 42 -8.6 16.5
13:00 1023 30.21 852 25.16 4.1 39.3 43 -7.4 18.6
13:05 1023 30.21 852 25.16 4.8 40.7 36 -9 15.8
13:10 1023 30.21 852 25.16 5 41.1 33 -9.9 14.2
13:15 1023 30.21 852 25.16 5.1 41.2 34 -9.3 15.2
13:20 1023 30.21 852 25.16 4.7 40.5 39 -8.1 17.5
13:25 1022 30.18 852 25.16 4.6 40.3 36 -9.3 15.2
13:30 1022 30.18 852 25.16 3.9 39 37 -9.4 15.1
13:35 1022 30.18 852 25.16 4.5 40.1 37 -9 15.8
13:40 1022 30.18 852 25.16 4.5 40.1 33 -10.3 13.4
13:45 1022 30.18 851 25.13 5.3 41.5 35 -9.1 15.7
13:50 1022 30.18 851 25.13 6.2 43.1 34 -8.7 16.4
13:55 1022 30.18 851 25.13 6.1 43 33 -8.8 16.2
14:00 1022 30.18 851 25.13 6.5 43.8 32 -8.9 15.9
14:05 1022 30.18 851 25.13 6.7 44 31 -9.5 14.9
14:10 1022 30.18 851 25.13 6.6 43.8 32 -9 15.9
14:15 1022 30.18 851 25.13 6.8 44.2 31 -9.1 15.6
14:20 1022 30.18 851 25.13 6.4 43.4 33 -8.8 16.2
14:25 1022 30.18 851 25.13 6.6 43.8 27 -11 12.2
14:30 1022 30.18 851 25.13 7.4 45.2 28 -10.1 13.9
14:35 1022 30.18 851 25.13 8.2 46.7 25 -10.6 12.8
14:40 1022 30.18 851 25.13 8.2 46.8 27 -9.9 14.2
14:45 1021 30.15 851 25.13 7.3 45.1 30 -9.3 15.3
14:50 1021 30.15 851 25.13 7.4 45.3 29 -9.4 15
14:55 1021 30.15 851 25.13 8.5 47.2 27 -9.5 14.9
15:00 1021 30.15 850 25.1 9 48.1 24 -10.4 13.3
15:05 1021 30.15 850 25.1 8.6 47.4 25 -10.6 12.9
15:10 1021 30.15 850 25.1 9.1 48.4 23 -11.2 11.9
15:15 1021 30.15 850 25.1 9.1 48.3 24 -10.4 13.3
15:20 1021 30.15 850 25.1 8.9 48 25 -10.2 13.7
15:25 1021 30.15 850 25.1 9.3 48.8 25 -9.8 14.4
15:30 1021 30.15 850 25.1 9.9 49.7 23 -10.6 13
15:35 1021 30.15 850 25.1 10 50 26 -8.4 16.8
15:40 1021 30.15 850 25.1 9.4 48.9 27 -8.9 16
15:45 1021 30.15 850 25.1 9.4 49 28 -8.4 16.9
15:50 1021 30.15 850 25.1 9.4 48.9 29 -7.7 18.1
15:55 1021 30.15 850 25.1 9.5 49 27 -8.7 16.3
16:00 1021 30.15 850 25.1 9.2 48.6 28 -8.5 16.7
16:05 1021 30.15 850 25.1 9.6 49.3 25 -9.5 15
16:10 1021 30.15 850 25.1 10.5 50.8 24 -9.1 15.7
16:15 1021 30.15 850 25.1 9.4 48.8 26 -9 15.8
16:20 1021 30.15 850 25.1 9.2 48.6 27 -8.9 16
16:25 1021 30.15 850 25.1 9.4 48.9 22 -11.3 11.6
16:30 1021 30.15 850 25.1 10.1 50.1 20 -12.2 10
16:35 1021 30.15 850 25.1 10.1 50.2 25 -8.8 16.1
16:40 1020 30.12 850 25.1 10.5 51 16 -14.1 6.5
16:45 1020 30.12 850 25.1 10.3 50.5 24 -9.4 15.1
16:50 1020 30.12 850 25.1 9.7 49.5 24 -9.8 14.3
16:55 1020 30.12 849 25.07 9.5 49.1 26 -8.9 15.9
17:00 1020 30.12 849 25.07 9 48.3 26 -9.6 14.8
17:05 1020 30.12 849 25.07 8.8 47.9 27 -9.3 15.3
17:10 1020 30.12 849 25.07 8.9 48.1 27 -9.2 15.4
17:15 1020 30.12 849 25.07 9 48.1 25 -9.9 14.3
17:20 1020 30.12 849 25.07 9.1 48.3 25 -9.9 14.1
17:25 1020 30.12 849 25.07 9.4 48.9 25 -9.7 14.5
17:30 1020 30.12 849 25.07 9.6 49.3 24 -10 14.1
17:35 1020 30.12 849 25.07 9.5 49 25 -9.5 14.9
17:40 1020 30.12 849 25.07 8.6 47.5 27 -9.4 15
17:45 1020 30.12 849 25.07 8.2 46.8 26 -10.2 13.7
17:50 1020 30.12 849 25.07 8.4 47.1 26 -10 14
17:55 1020 30.12 849 25.07 8.7 47.6 26 -9.8 14.4
18:00 1020 30.12 849 25.07 8.9 48 26 -9.4 15.1
18:05 1020 30.12 849 25.07 9.1 48.3 26 -9.4 15.1
18:10 1020 30.12 849 25.07 8.7 47.6 25 -10.2 13.6
18:15 1020 30.12 849 25.07 8.9 47.9 25 -10.1 13.9
18:20 1020 30.12 849 25.07 8.7 47.7 25 -10.4 13.2
18:25 1020 30.12 849 25.07 8.3 47 25 -10.5 13.1
18:30 1020 30.12 849 25.07 8.3 46.9 25 -10.5 13.2
18:35 1020 30.12 849 25.07 8.1 46.6 27 -10 14.1
18:40 1020 30.12 849 25.07 7.7 45.9 24 -11.5 11.3
18:45 1020 30.12 849 25.07 7.7 45.8 25 -10.9 12.3
18:50 1020 30.12 849 25.07 7.6 45.8 26 -10.9 12.3
18:55 1020 30.12 849 25.07 7.7 45.8 26 -10.6 13
19:00 1020 30.12 849 25.07 7.5 45.5 27 -10.3 13.5
19:05 1020 30.12 849 25.07 7.3 45.2 28 -9.9 14.1
19:10 1020 30.12 849 25.07 7.4 45.4 29 -9.6 14.7
19:15 1020 30.12 849 25.07 7.5 45.4 30 -8.8 16.1
19:20 1020 30.12 849 25.07 7.3 45.1 31 -8.9 16
19:25 1019 30.09 849 25.07 7.1 44.7 32 -8.5 16.7
19:30 1019 30.09 849 25.07 6.8 44.2 35 -7.6 18.3
19:35 1020 30.12 849 25.07 6.6 43.9 37 -6.9 19.6
19:40 1020 30.12 849 25.07 6.3 43.4 38 -7 19.4
19:45 1020 30.12 849 25.07 6.1 43 39 -6.6 20
19:50 1020 30.12 849 25.07 5.6 42.2 42 -6.2 20.9
19:55 1020 30.12 849 25.07 5.3 41.5 43 -6.3 20.7
20:00 1020 30.12 849 25.07 5 40.9 45 -6 21.1
20:05 1019 30.09 849 25.07 4.6 40.3 45 -6.3 20.7
20:10 1019 30.09 849 25.07 4.3 39.8 47 -6 21.2
20:15 1019 30.09 849 25.07 4 39.1 48 -6 21.3
20:20 1020 30.12 849 25.07 3.9 39.1 47 -6.3 20.7
20:25 1020 30.12 849 25.07 3.7 38.7 49 -6.2 20.9
20:30 1020 30.12 849 25.07 3.4 38.1 52 -5.4 22.2
20:35 1020 30.12 849 25.07 2.9 37.2 54 -5.6 22
20:40 1020 30.12 849 25.07 2.6 36.8 52 -6.1 21
20:45 1020 30.12 849 25.07 3.1 37.6 45 -7.8 18
20:50 1020 30.12 849 25.07 3.6 38.5 46 -6.9 19.5
20:55 1019 30.09 849 25.07 3.2 37.8 43 -8.1 17.4
21:00 1020 30.12 849 25.07 3.3 38 48 -6.7 20
21:05 1020 30.12 849 25.07 2.9 37.2 48 -7 19.3
21:10 1019 30.09 849 25.07 2.6 36.8 45 -8 17.6
21:15 1020 30.12 849 25.07 3 37.4 47 -7.3 18.9
21:20 1020 30.12 849 25.07 2.8 37 44 -8.3 17.1
21:25 1020 30.12 849 25.07 3.1 37.6 44 -7.9 17.7
21:30 1020 30.12 849 25.07 2.8 37.1 44 -8.4 17
21:35 1020 30.12 849 25.07 2.8 37.1 45 -8.1 17.4
21:40 1020 30.12 849 25.07 2.6 36.7 43 -8.9 16
21:45 1020 30.12 849 25.07 2.9 37.2 40 -9.4 15.1
21:50 1020 30.12 849 25.07 2.9 37.2 42 -8.9 16
21:55 1020 30.12 849 25.07 2.5 36.5 42 -9 15.8
22:00 1020 30.12 849 25.07 2.6 36.7 42 -9.2 15.4
22:05 1020 30.12 849 25.07 2.7 36.8 41 -9.2 15.5
22:10 1020 30.12 849 25.07 2.7 36.8 41 -9.2 15.5
22:15 1020 30.12 849 25.07 2.7 36.9 42 -9.1 15.7
22:20 1020 30.12 849 25.07 2.7 36.9 41 -9.4 15.1
22:25 1020 30.12 849 25.07 3 37.3 40 -9.4 15.2
22:30 1020 30.12 849 25.07 3.1 37.6 39 -9.6 14.7
22:35 1020 30.12 849 25.07 3.1 37.5 40 -9.3 15.2
22:40 1020 30.12 849 25.07 2.9 37.3 40 -9.5 15
22:45 1020 30.12 849 25.07 2.7 36.9 40 -9.5 14.9
22:50 1020 30.12 849 25.07 2.6 36.6 41 -9.5 14.9
22:55 1020 30.12 849 25.07 2.5 36.6 40 -9.8 14.4
23:00 1020 30.12 849 25.07 2.9 37.3 39 -9.7 14.5
23:05 1020 30.12 849 25.07 3 37.4 38 -9.9 14.3
23:10 1020 30.12 849 25.07 3 37.4 37 -10.2 13.7
23:15 1020 30.12 849 25.07 3.1 37.6 38 -10 14
23:20 1020 30.12 849 25.07 2.9 37.2 39 -9.8 14.3
23:25 1019 30.09 849 25.07 2.8 37.1 38 -10.2 13.7
23:30 1019 30.09 849 25.07 2.9 37.3 37 -10.2 13.6
23:35 1019 30.09 849 25.07 3 37.4 38 -9.9 14.1
23:40 1019 30.09 849 25.07 2.8 37.1 39 -9.7 14.6
23:45 1019 30.09 849 25.07 2.6 36.7 41 -9.5 14.9
23:50 1019 30.09 849 25.07 2.3 36.2 42 -9.4 15
23:55 1019 30.09 849 25.07 2 35.7 42 -9.5 15
24:00 1019 30.09 849 25.07 1.9 35.4 44 -9.2 15.5